createdAt,value
2019-02-26T00:00:42.245Z,100717.87
2019-02-26T00:03:06.613Z,100947.65
2019-02-26T00:05:34.574Z,100950.02
2019-02-26T00:08:02.672Z,100951.80
2019-02-26T00:10:31.596Z,100864.41
2019-02-26T00:12:58.516Z,100951.40
2019-02-26T00:15:26.539Z,100942.14
2019-02-26T00:17:54.973Z,100949.44
2019-02-26T00:20:22.950Z,100953.00
2019-02-26T00:22:52.983Z,100948.45
2019-02-26T00:25:20.466Z,100849.84
2019-02-26T00:27:49.335Z,100934.27
2019-02-26T00:30:16.643Z,100938.80
2019-02-26T00:32:44.147Z,100914.20
2019-02-26T00:35:12.169Z,100931.11
2019-02-26T00:37:40.396Z,100965.62
2019-02-26T00:40:10.053Z,100928.76
2019-02-26T00:42:37.111Z,100933.30
2019-02-26T00:45:07.848Z,100933.30
2019-02-26T00:47:35.953Z,100934.28
2019-02-26T00:50:02.481Z,100931.92
2019-02-26T00:52:32.576Z,100932.14
2019-02-26T00:54:59.937Z,100934.50
2019-02-26T00:57:30.962Z,100930.58
2019-02-26T00:59:55.849Z,100925.83
2019-02-26T01:02:23.988Z,100916.39
2019-02-26T01:04:52.129Z,100909.09
2019-02-26T01:07:21.355Z,100916.97
2019-02-26T01:09:50.193Z,100913.42
2019-02-26T01:12:18.306Z,100918.58
2019-02-26T01:14:48.075Z,100918.36
2019-02-26T01:17:16.988Z,100904.97
2019-02-26T01:19:43.299Z,100911.68
2019-02-26T01:22:10.994Z,100914.25
2019-02-26T01:24:39.085Z,100906.16
2019-02-26T01:27:07.314Z,100845.94
2019-02-26T01:29:35.744Z,100907.73
2019-02-26T01:32:03.660Z,100901.84
2019-02-26T01:34:31.710Z,100894.73
2019-02-26T01:37:00.914Z,100900.06
2019-02-26T01:39:28.046Z,100891.17
2019-02-26T01:41:58.717Z,100893.17
2019-02-26T01:44:28.119Z,100909.11
2019-02-26T01:46:53.775Z,100886.27
2019-02-26T01:49:23.642Z,100892.36
2019-02-26T01:51:51.792Z,100891.37
2019-02-26T01:54:18.878Z,100876.97
2019-02-26T01:56:47.403Z,100888.22
2019-02-26T01:59:18.263Z,100872.06
2019-02-26T02:04:24.346Z,100857.25
2019-02-26T02:06:54.445Z,100858.22
2019-02-26T02:09:22.749Z,100885.81
2019-02-26T02:11:49.442Z,100849.36
2019-02-26T02:14:17.490Z,100852.31
2019-02-26T02:16:46.156Z,100851.34
2019-02-26T02:19:18.083Z,100855.30
2019-02-26T02:21:42.686Z,100856.28
2019-02-26T02:24:12.810Z,100849.20
2019-02-26T02:26:41.093Z,100839.55
2019-02-26T02:29:07.570Z,100842.12
2019-02-26T02:31:37.722Z,100846.27
2019-02-26T02:34:03.969Z,100851.58
2019-02-26T02:36:31.926Z,100856.11
2019-02-26T02:38:59.986Z,100866.34
2019-02-26T02:41:28.456Z,100868.92
2019-02-26T02:43:56.461Z,100866.97
2019-02-26T02:46:24.683Z,100810.90
2019-02-26T02:48:53.192Z,100854.55
2019-02-26T02:51:21.607Z,100851.40
2019-02-26T02:53:51.076Z,100815.20
2019-02-26T02:56:18.076Z,100847.08
2019-02-26T02:58:46.962Z,100833.47
2019-02-26T03:01:16.491Z,100833.47
2019-02-26T03:03:43.031Z,100844.73
2019-02-26T03:06:12.360Z,100849.45
2019-02-26T03:08:39.885Z,100829.00
2019-02-26T03:11:07.665Z,100861.47
2019-02-26T03:13:35.886Z,100832.38
2019-02-26T03:16:03.918Z,100855.98
2019-02-26T03:18:32.289Z,100855.19
2019-02-26T03:21:02.452Z,100865.64
2019-02-26T03:23:28.355Z,100860.70
2019-02-26T03:25:56.553Z,100855.59
2019-02-26T03:28:25.003Z,100852.06
2019-02-26T03:30:53.172Z,100851.84
2019-02-26T03:33:21.411Z,100839.66
2019-02-26T03:35:50.036Z,100838.28
2019-02-26T03:38:20.638Z,100845.75
2019-02-26T03:40:48.965Z,100852.05
2019-02-26T03:43:16.311Z,100863.29
2019-02-26T03:45:47.313Z,100864.27
2019-02-26T03:48:11.492Z,100858.75
2019-02-26T03:50:44.083Z,100858.34
2019-02-26T03:53:09.930Z,100858.55
2019-02-26T03:55:38.812Z,100843.20
2019-02-26T03:58:04.090Z,100863.08
2019-02-26T04:00:34.632Z,100855.20
2019-02-26T04:03:00.023Z,100868.17
2019-02-26T04:05:28.597Z,100844.15
2019-02-26T04:07:58.912Z,100859.91
2019-02-26T04:10:24.207Z,100854.00
2019-02-26T04:12:55.356Z,100839.64
2019-02-26T04:15:24.322Z,100860.50
2019-02-26T04:17:49.181Z,100854.99
2019-02-26T04:20:17.902Z,100854.37
2019-02-26T04:22:48.960Z,100874.27
2019-02-26T04:25:18.130Z,100867.55
2019-02-26T04:28:10.806Z,100843.89
2019-02-26T04:32:57.569Z,100866.56
2019-02-26T04:35:36.155Z,100696.05
2019-02-26T04:38:29.079Z,100866.73
2019-02-26T04:41:10.236Z,100867.72
2019-02-26T04:43:58.509Z,100876.17
2019-02-26T04:46:36.953Z,100877.34
2019-02-26T04:49:03.095Z,100832.06
2019-02-26T04:51:31.496Z,100862.41
2019-02-26T04:54:02.031Z,100848.02
2019-02-26T04:56:31.258Z,100860.63
2019-02-26T04:58:56.533Z,100863.56
2019-02-26T05:01:24.687Z,100855.52
2019-02-26T05:03:57.017Z,100834.05
2019-02-26T05:06:25.647Z,100850.56
2019-02-26T05:08:55.921Z,100847.81
2019-02-26T05:11:31.800Z,100838.19
2019-02-26T05:13:50.543Z,100836.81
2019-02-26T05:16:19.275Z,100829.31
2019-02-26T05:18:49.599Z,100824.02
2019-02-26T05:21:16.564Z,100816.93
2019-02-26T05:23:46.610Z,100817.50
2019-02-26T05:26:18.086Z,100615.92
2019-02-26T05:28:49.712Z,100816.09
2019-02-26T05:31:17.935Z,100815.30
2019-02-26T05:33:49.570Z,100778.30
2019-02-26T05:36:17.227Z,100788.13
2019-02-26T05:38:43.607Z,100821.03
2019-02-26T05:41:11.500Z,100745.82
2019-02-26T05:43:39.671Z,100817.09
2019-02-26T05:46:07.874Z,100826.55
2019-02-26T05:48:37.167Z,100823.98
2019-02-26T05:51:05.743Z,100836.17
2019-02-26T05:53:33.150Z,100826.95
2019-02-26T05:56:01.363Z,100832.45
2019-02-26T05:58:29.150Z,100856.84
2019-02-26T06:00:57.966Z,100807.84
2019-02-26T06:03:25.831Z,100829.49
2019-02-26T06:05:55.500Z,100815.30
2019-02-26T06:08:25.650Z,100836.94
2019-02-26T06:10:49.760Z,100822.56
2019-02-26T06:13:18.100Z,100836.94
2019-02-26T06:15:46.233Z,100866.22
2019-02-26T06:18:14.168Z,100844.38
2019-02-26T06:20:42.125Z,100814.20
2019-02-26T06:23:10.173Z,100780.92
2019-02-26T06:25:38.426Z,100851.65
2019-02-26T06:28:07.721Z,100856.75
2019-02-26T06:30:34.849Z,100821.48
2019-02-26T06:33:04.360Z,100852.23
2019-02-26T06:35:31.555Z,100855.59
2019-02-26T06:38:00.037Z,100845.58
2019-02-26T06:40:27.578Z,100840.27
2019-02-26T06:42:55.564Z,100834.96
2019-02-26T06:45:23.802Z,100841.08
2019-02-26T06:47:53.988Z,100844.61
2019-02-26T06:50:19.886Z,100838.53
2019-02-26T06:52:50.546Z,100880.53
2019-02-26T06:55:17.002Z,100852.30
2019-02-26T06:57:47.216Z,100839.72
2019-02-26T07:00:16.218Z,100843.46
2019-02-26T07:02:45.514Z,100844.67
2019-02-26T07:05:12.260Z,100847.05
2019-02-26T07:07:40.634Z,100850.80
2019-02-26T07:10:13.813Z,100856.90
2019-02-26T07:12:40.536Z,100856.70
2019-02-26T07:15:11.698Z,100855.92
2019-02-26T07:17:39.045Z,100854.56
2019-02-26T07:20:06.956Z,100852.80
2019-02-26T07:22:35.514Z,100859.31
2019-02-26T07:25:03.795Z,100780.58
2019-02-26T07:27:33.700Z,100849.89
2019-02-26T07:30:00.343Z,100784.76
2019-02-26T07:32:28.139Z,100850.47
2019-02-26T07:34:58.078Z,100852.03
2019-02-26T07:37:29.219Z,100851.45
2019-02-26T07:39:56.623Z,100855.95
2019-02-26T07:42:24.637Z,100857.89
2019-02-26T07:44:53.291Z,100857.66
2019-02-26T07:47:22.097Z,100656.12
2019-02-26T07:49:49.229Z,100858.99
2019-02-26T07:52:17.468Z,100859.91
2019-02-26T07:54:47.082Z,100858.48
2019-02-26T07:57:13.326Z,100849.53
2019-02-26T07:59:42.549Z,100847.72
2019-02-26T08:02:11.357Z,100838.59
2019-02-26T08:04:39.477Z,100836.00
2019-02-26T08:07:06.882Z,100769.28
2019-02-26T08:09:35.125Z,100831.19
2019-02-26T08:12:04.348Z,100824.81
2019-02-26T08:17:06.107Z,100825.00
2019-02-26T08:19:31.948Z,100809.96
2019-02-26T08:21:59.989Z,100826.89
2019-02-26T08:24:28.030Z,100837.40
2019-02-26T08:26:56.235Z,100842.56
2019-02-26T08:29:26.359Z,100832.02
2019-02-26T08:31:52.680Z,100860.19
2019-02-26T08:34:20.705Z,100862.20
2019-02-26T08:36:48.807Z,100871.91
2019-02-26T08:39:16.587Z,100874.47
2019-02-26T08:42:00.165Z,100856.94
2019-02-26T08:44:28.218Z,100855.97
2019-02-26T08:46:55.906Z,100861.66
2019-02-26T08:49:24.307Z,100864.16
2019-02-26T08:51:52.426Z,100864.91
2019-02-26T08:54:21.266Z,100868.05
2019-02-26T08:56:48.124Z,100875.16
2019-02-26T08:59:17.742Z,100867.98
2019-02-26T09:01:43.840Z,100868.39
2019-02-26T09:04:12.284Z,100856.66
2019-02-26T09:06:39.743Z,100884.84
2019-02-26T09:09:07.891Z,100883.82
2019-02-26T09:11:43.585Z,100873.08
2019-02-26T09:14:13.980Z,100863.87
2019-02-26T09:16:40.250Z,100862.44
2019-02-26T09:19:08.998Z,100858.03
2019-02-26T09:21:39.518Z,100850.77
2019-02-26T09:24:07.632Z,100844.48
2019-02-26T09:26:32.824Z,100836.09
2019-02-26T09:29:01.005Z,100850.59
2019-02-26T09:31:29.179Z,100851.37
2019-02-26T09:33:57.206Z,100848.47
2019-02-26T09:36:26.204Z,100827.95
2019-02-26T09:38:53.198Z,100844.02
2019-02-26T09:41:21.481Z,100843.48
2019-02-26T09:43:49.161Z,100847.28
2019-02-26T09:46:19.074Z,100831.05
2019-02-26T09:48:46.337Z,100851.44
2019-02-26T09:51:14.788Z,100847.91
2019-02-26T09:53:42.443Z,100847.11
2019-02-26T09:56:10.379Z,100853.86
2019-02-26T09:58:40.346Z,100852.83
2019-02-26T10:01:08.701Z,100833.42
2019-02-26T10:03:38.604Z,100849.30
2019-02-26T10:06:03.415Z,100792.99
2019-02-26T10:08:31.956Z,100852.16
2019-02-26T10:11:02.150Z,100865.72
2019-02-26T10:13:27.953Z,100844.15
2019-02-26T10:15:58.584Z,100834.02
2019-02-26T10:18:25.652Z,100870.30
2019-02-26T10:20:54.627Z,100851.98
2019-02-26T10:23:21.777Z,100870.72
2019-02-26T10:25:53.199Z,100859.98
2019-02-26T10:28:17.120Z,100865.57
2019-02-26T10:30:45.043Z,100874.14
2019-02-26T10:33:12.865Z,100872.94
2019-02-26T10:35:44.403Z,100868.27
2019-02-26T10:40:53.510Z,100858.83
2019-02-26T10:43:11.067Z,100868.73
2019-02-26T10:45:42.407Z,100869.56
2019-02-26T10:48:07.555Z,100875.78
2019-02-26T10:50:37.268Z,100869.15
2019-02-26T10:53:09.718Z,100850.44
2019-02-26T10:55:38.434Z,100785.60
2019-02-26T10:58:04.677Z,100855.62
2019-02-26T11:00:32.215Z,100854.16
2019-02-26T11:02:56.810Z,100853.48
2019-02-26T11:05:26.508Z,100839.08
2019-02-26T11:07:55.772Z,100853.48
2019-02-26T11:10:23.216Z,100846.80
2019-02-26T11:12:53.533Z,100848.03
2019-02-26T11:15:21.594Z,100844.83
2019-02-26T11:17:50.461Z,100837.64
2019-02-26T11:20:16.686Z,100837.25
2019-02-26T11:22:47.005Z,100833.78
2019-02-26T11:25:13.999Z,100824.78
2019-02-26T11:27:43.486Z,100827.00
2019-02-26T11:30:11.705Z,100797.80
2019-02-26T11:32:40.411Z,100757.70
2019-02-26T11:35:08.826Z,100815.09
2019-02-26T11:37:36.601Z,100815.58
2019-02-26T11:40:06.429Z,100805.52
2019-02-26T11:42:34.713Z,100810.33
2019-02-26T11:45:02.726Z,100808.12
2019-02-26T11:47:32.216Z,100810.67
2019-02-26T11:49:59.688Z,100801.44
2019-02-26T11:52:26.965Z,100806.05
2019-02-26T11:54:56.297Z,100815.31
2019-02-26T11:57:23.469Z,100841.83
2019-02-26T11:59:51.694Z,100805.52
2019-02-26T12:02:26.699Z,100795.25
2019-02-26T12:04:47.631Z,100786.81
2019-02-26T12:07:15.584Z,100784.59
2019-02-26T12:09:43.496Z,100777.17
2019-02-26T12:12:11.708Z,100782.02
2019-02-26T12:14:43.216Z,100776.16
2019-02-26T12:17:08.599Z,100776.30
2019-02-26T12:19:37.175Z,100746.47
2019-02-26T12:22:06.002Z,100771.88
2019-02-26T12:24:33.631Z,100764.01
2019-02-26T12:27:01.704Z,100766.86
2019-02-26T12:29:29.729Z,100764.30
2019-02-26T12:31:58.907Z,100758.11
2019-02-26T12:34:26.161Z,100753.26
2019-02-26T12:36:57.211Z,100759.19
2019-02-26T12:39:24.820Z,100768.02
2019-02-26T12:41:49.974Z,100761.59
2019-02-26T12:44:17.855Z,100757.78
2019-02-26T12:46:47.607Z,100756.05
2019-02-26T12:49:15.757Z,100744.00
2019-02-26T12:51:41.687Z,100748.91
2019-02-26T12:54:12.640Z,100747.80
2019-02-26T12:56:37.763Z,100736.84
2019-02-26T12:59:07.165Z,100723.16
2019-02-26T13:01:36.031Z,100719.16
2019-02-26T13:04:02.852Z,100717.03
2019-02-26T13:06:30.702Z,100707.94
2019-02-26T13:08:58.445Z,100704.70
2019-02-26T13:11:26.513Z,100699.07
2019-02-26T13:13:55.020Z,100706.36
2019-02-26T13:16:23.176Z,100701.37
2019-02-26T13:18:52.622Z,100725.41
2019-02-26T13:21:19.221Z,100671.75
2019-02-26T13:23:47.310Z,100695.42
2019-02-26T13:26:19.677Z,100699.42
2019-02-26T13:28:46.739Z,100681.80
2019-02-26T13:31:13.387Z,100691.09
2019-02-26T13:33:42.125Z,100691.67
2019-02-26T13:36:08.455Z,100691.38
2019-02-26T13:38:44.849Z,100685.83
2019-02-26T13:43:33.774Z,100688.06
2019-02-26T13:46:03.010Z,100686.81
2019-02-26T13:48:30.950Z,100687.70
2019-02-26T13:50:59.082Z,100627.25
2019-02-26T13:53:27.527Z,100683.44
2019-02-26T13:55:55.374Z,100676.30
2019-02-26T13:58:23.199Z,100678.47
2019-02-26T14:00:51.028Z,100676.43
2019-02-26T14:03:18.851Z,100657.67
2019-02-26T14:05:46.834Z,100666.25
2019-02-26T14:08:14.886Z,100664.52
2019-02-26T14:10:43.022Z,100659.08
2019-02-26T14:13:10.832Z,100660.72
2019-02-26T14:15:39.236Z,100660.52
2019-02-26T14:18:08.021Z,100652.87
2019-02-26T14:20:36.111Z,100658.73
2019-02-26T14:23:04.585Z,100655.64
2019-02-26T14:25:34.207Z,100641.28
2019-02-26T14:28:02.287Z,100662.42
2019-02-26T14:30:30.206Z,100644.73
2019-02-26T14:32:58.090Z,100648.31
2019-02-26T14:35:25.877Z,100649.95
2019-02-26T14:37:54.219Z,100643.94
2019-02-26T14:40:22.274Z,100647.00
2019-02-26T14:42:50.093Z,100655.05
2019-02-26T14:45:18.263Z,100643.80
2019-02-26T14:47:46.328Z,100640.39
2019-02-26T14:50:15.671Z,100641.70
2019-02-26T14:52:43.938Z,100637.36
2019-02-26T14:55:12.250Z,100636.96
2019-02-26T14:57:40.185Z,100629.20
2019-02-26T15:00:11.957Z,100607.77
2019-02-26T15:02:39.742Z,100602.89
2019-02-26T15:05:07.760Z,100626.16
2019-02-26T15:07:35.934Z,100589.18
2019-02-26T15:10:05.754Z,100634.36
2019-02-26T15:12:33.558Z,100597.86
2019-02-26T15:15:02.135Z,100611.37
2019-02-26T15:17:30.901Z,100606.46
2019-02-26T15:19:58.263Z,100605.31
2019-02-26T15:22:26.785Z,100544.67
2019-02-26T15:24:55.347Z,100500.46
2019-02-26T15:27:23.102Z,100593.97
2019-02-26T15:29:51.796Z,100573.38
2019-02-26T15:32:20.018Z,100583.38
2019-02-26T15:34:50.286Z,100590.07
2019-02-26T15:37:18.836Z,100526.05
2019-02-26T15:39:53.559Z,100584.59
2019-02-26T15:42:22.198Z,100593.37
2019-02-26T15:44:51.649Z,100544.05
2019-02-26T15:47:19.566Z,100592.55
2019-02-26T15:49:48.082Z,100588.44
2019-02-26T15:52:16.963Z,100593.63
2019-02-26T15:54:45.615Z,100593.66
2019-02-26T15:57:14.019Z,100599.46
2019-02-26T15:59:43.548Z,100599.03
2019-02-26T16:02:12.518Z,100589.43
2019-02-26T16:04:40.652Z,100610.96
2019-02-26T16:07:09.841Z,100614.26
2019-02-26T16:09:37.953Z,100633.64
2019-02-26T16:12:05.914Z,100621.22
2019-02-26T16:14:34.295Z,100618.59
2019-02-26T16:17:02.522Z,100529.00
2019-02-26T16:19:30.428Z,100616.95
2019-02-26T16:21:58.989Z,100595.03
2019-02-26T16:24:27.046Z,100624.82
2019-02-26T16:26:56.246Z,100622.35
2019-02-26T16:29:25.022Z,100624.09
2019-02-26T16:31:52.896Z,100615.30
2019-02-26T16:34:21.180Z,100621.27
2019-02-26T16:36:48.952Z,100621.15
2019-02-26T16:39:18.983Z,100621.33
2019-02-26T16:41:47.559Z,100624.33
2019-02-26T16:44:18.129Z,100621.14
2019-02-26T16:46:46.853Z,100566.05
2019-02-26T16:49:17.239Z,100622.58
2019-02-26T16:51:46.347Z,100626.02
2019-02-26T16:54:19.468Z,100615.19
2019-02-26T16:56:50.125Z,100619.87
2019-02-26T16:59:18.045Z,100607.39
2019-02-26T17:01:46.287Z,100627.84
2019-02-26T17:04:16.022Z,100633.27
2019-02-26T17:06:44.524Z,100635.12
2019-02-26T17:09:14.323Z,100630.75
2019-02-26T17:11:44.573Z,100574.86
2019-02-26T17:14:17.347Z,100620.73
2019-02-26T17:16:45.910Z,100578.95
2019-02-26T17:19:15.473Z,100644.42
2019-02-26T17:21:42.663Z,100621.01
2019-02-26T17:24:11.448Z,100634.44
2019-02-26T17:26:39.739Z,100658.06
2019-02-26T17:29:07.738Z,100658.88
2019-02-26T17:31:37.660Z,100635.83
2019-02-26T17:34:12.567Z,100663.58
2019-02-26T17:36:41.803Z,100661.15
2019-02-26T17:39:11.130Z,100658.36
2019-02-26T17:41:39.043Z,100653.53
2019-02-26T17:44:08.085Z,100657.84
2019-02-26T17:46:36.275Z,100628.77
2019-02-26T17:49:07.990Z,100663.98
2019-02-26T17:51:37.765Z,100613.66
2019-02-26T17:54:07.258Z,100688.28
2019-02-26T17:56:36.326Z,100662.48
2019-02-26T17:59:05.399Z,100656.36
2019-02-26T18:01:33.470Z,100660.57
2019-02-26T18:04:01.563Z,100658.92
2019-02-26T18:06:29.795Z,100621.75
2019-02-26T18:08:58.159Z,100659.05
2019-02-26T18:11:26.271Z,100663.98
2019-02-26T18:13:54.278Z,100727.66
2019-02-26T18:16:22.238Z,100661.11
2019-02-26T18:18:50.368Z,100637.39
2019-02-26T18:21:18.482Z,100657.50
2019-02-26T18:23:46.747Z,100658.34
2019-02-26T18:26:17.381Z,100667.31
2019-02-26T18:28:42.901Z,100664.80
2019-02-26T18:31:11.062Z,100671.36
2019-02-26T18:33:39.349Z,100662.66
2019-02-26T18:36:07.413Z,100658.38
2019-02-26T18:38:35.746Z,100661.56
2019-02-26T18:41:03.801Z,100666.34
2019-02-26T18:43:31.801Z,100662.15
2019-02-26T18:46:00.864Z,100662.69
2019-02-26T18:48:34.959Z,100665.86
2019-02-26T18:51:03.762Z,100669.78
2019-02-26T18:53:32.242Z,100673.10
2019-02-26T18:56:01.799Z,100668.91
2019-02-26T18:58:28.951Z,100667.11
2019-02-26T19:00:58.669Z,100662.56
2019-02-26T19:03:25.812Z,100663.44
2019-02-26T19:05:54.667Z,100661.47
2019-02-26T19:08:21.879Z,100664.05
2019-02-26T19:10:50.880Z,100667.59
2019-02-26T19:13:18.322Z,100660.84
2019-02-26T19:15:48.441Z,100662.80
2019-02-26T19:18:15.775Z,100663.56
2019-02-26T19:20:44.408Z,100680.41
2019-02-26T19:23:12.825Z,100672.59
2019-02-26T19:25:41.635Z,100670.53
2019-02-26T19:28:09.902Z,100689.98
2019-02-26T19:30:37.575Z,100668.54
2019-02-26T19:33:06.387Z,100661.48
2019-02-26T19:35:38.180Z,100663.78
2019-02-26T19:38:03.299Z,100658.49
2019-02-26T19:40:34.173Z,100664.48
2019-02-26T19:43:02.291Z,100658.96
2019-02-26T19:45:32.830Z,100656.27
2019-02-26T19:47:58.931Z,100652.41
2019-02-26T19:50:27.166Z,100649.20
2019-02-26T19:52:57.277Z,100652.11
2019-02-26T19:55:26.836Z,100652.62
2019-02-26T19:57:55.016Z,100650.16
2019-02-26T20:00:23.947Z,100657.60
2019-02-26T20:02:51.824Z,100650.57
2019-02-26T20:05:21.094Z,100617.41
2019-02-26T20:07:50.215Z,100609.25
2019-02-26T20:10:18.842Z,100643.95
2019-02-26T20:12:46.705Z,100632.37
2019-02-26T20:15:14.983Z,100656.41
2019-02-26T20:17:43.360Z,100655.13
2019-02-26T20:20:11.970Z,100646.90
2019-02-26T20:22:39.757Z,100645.58
2019-02-26T20:25:09.855Z,100645.88
2019-02-26T20:27:38.390Z,100643.44
2019-02-26T20:30:09.622Z,100645.94
2019-02-26T20:32:36.092Z,100586.89
2019-02-26T20:35:04.946Z,100637.84
2019-02-26T20:37:32.847Z,100639.30
2019-02-26T20:40:00.745Z,100642.55
2019-02-26T20:42:29.547Z,100646.41
2019-02-26T20:44:59.125Z,100642.70
2019-02-26T20:47:25.491Z,100647.72
2019-02-26T20:49:54.066Z,100648.20
2019-02-26T20:52:21.923Z,100650.69
2019-02-26T20:54:49.794Z,100657.11
2019-02-26T20:57:18.259Z,100654.25
2019-02-26T20:59:46.424Z,100654.17
2019-02-26T21:02:14.203Z,100654.00
2019-02-26T21:04:42.681Z,100652.12
2019-02-26T21:07:10.822Z,100650.43
2019-02-26T21:09:41.044Z,100711.23
2019-02-26T21:12:07.061Z,100648.44
2019-02-26T21:14:35.207Z,100650.49
2019-02-26T21:17:03.752Z,100648.20
2019-02-26T21:19:35.570Z,100623.58
2019-02-26T21:22:02.111Z,100648.80
2019-02-26T21:24:31.883Z,100654.55
2019-02-26T21:26:58.022Z,100655.78
2019-02-26T21:29:26.042Z,100656.03
2019-02-26T21:31:54.449Z,100647.62
2019-02-26T21:34:23.163Z,100646.22
2019-02-26T21:36:51.018Z,100655.69
2019-02-26T21:39:19.049Z,100653.14
2019-02-26T21:41:47.110Z,100651.83
2019-02-26T21:44:16.435Z,100652.22
2019-02-26T21:46:44.627Z,100658.56
2019-02-26T21:49:12.887Z,100652.29
2019-02-26T21:51:40.681Z,100654.70
2019-02-26T21:54:08.626Z,100649.48
2019-02-26T21:56:36.927Z,100663.13
2019-02-26T21:59:04.966Z,100663.82
2019-02-26T22:01:32.823Z,100666.65
2019-02-26T22:04:01.833Z,100657.81
2019-02-26T22:06:30.005Z,100652.50
2019-02-26T22:08:57.918Z,100656.11
2019-02-26T22:11:26.023Z,100657.14
2019-02-26T22:13:55.557Z,100665.69
2019-02-26T22:16:23.958Z,100658.02
2019-02-26T22:18:52.194Z,100666.98
2019-02-26T22:21:20.175Z,100663.47
2019-02-26T22:23:48.108Z,100665.13
2019-02-26T22:26:16.443Z,100655.52
2019-02-26T22:28:44.630Z,100660.09
2019-02-26T22:31:12.654Z,100655.78
2019-02-26T22:33:43.427Z,100610.45
2019-02-26T22:36:09.900Z,100660.77
2019-02-26T22:38:38.951Z,100658.63
2019-02-26T22:41:07.394Z,100655.30
2019-02-26T22:43:35.295Z,100659.64
2019-02-26T22:46:03.193Z,100654.73
2019-02-26T22:48:31.638Z,100646.48
2019-02-26T22:51:00.324Z,100646.50
2019-02-26T22:53:28.689Z,100645.52
2019-02-26T22:55:57.481Z,100642.20
2019-02-26T22:58:25.645Z,100631.37
2019-02-26T23:01:02.687Z,100639.67
2019-02-26T23:30:59.892Z,100609.30
2019-02-26T23:33:28.875Z,100604.99
2019-02-26T23:35:58.675Z,100613.29
2019-02-26T23:38:28.802Z,100611.55
2019-02-26T23:41:00.312Z,100572.73
2019-02-26T23:43:29.590Z,100598.99
2019-02-26T23:45:58.947Z,100603.32
2019-02-26T23:48:28.780Z,100598.44
2019-02-26T23:50:58.678Z,100600.23
2019-02-26T23:53:29.026Z,100600.22
2019-02-26T23:55:58.786Z,100599.25
2019-02-26T23:58:31.192Z,100593.75
